Time;durP1;ratioP1;P1;durP2;ratioP2;P2;SDS_P1;SDS_P2;PMS_P1;PMS_P2;Temp;Humidity;BMP_temperature;BMP_pressure;BME280_temperature;BME280_humidity;BME280_pressure;Samples;Min_cycle;Max_cycle;Signal;HPM_P1;HPM_P2
2024/03/29 01:44:46;;;;;;;0.30;0.30;;;;;;;;;;4943728;28;20238;-88
2024/03/29 01:47:51;;;;;;;2.50;1.30;;;;;;;;;;4937829;28;20211;-88
2024/03/29 01:50:57;;;;;;;0.30;0.30;;;;;;;;;;4943989;28;20250;-89
2024/03/29 01:54:02;;;;;;;0.30;0.30;;;;;;;;;;4936842;28;20187;-88
2024/03/29 01:57:08;;;;;;;0.40;0.40;;;;;;;;;;4938654;28;20245;-86
2024/03/29 02:00:13;;;;;;;0.40;0.40;;;;;;;;;;4936542;28;20211;-88
2024/03/29 02:03:18;;;;;;;0.73;0.47;;;;;;;;;;4924019;29;20252;-89
2024/03/29 02:06:25;;;;;;;0.40;0.40;;;;;;;;;;4935910;28;20210;-88
2024/03/29 02:09:30;;;;;;;1.07;0.97;;;;;;;;;;4943779;28;20210;-88
2024/03/29 02:12:35;;;;;;;0.50;0.43;;;;;;;;;;4931103;29;20219;-87
2024/03/29 02:15:41;;;;;;;0.70;0.63;;;;;;;;;;4924465;29;20809;-89
2024/03/29 02:18:46;;;;;;;0.73;0.73;;;;;;;;;;4933131;29;20262;-89
2024/03/29 02:21:54;;;;;;;0.70;0.70;;;;;;;;;;4923681;29;20208;-89
2024/03/29 02:25:01;;;;;;;0.40;0.40;;;;;;;;;;4953449;29;20198;-88
2024/03/29 02:28:06;;;;;;;0.40;0.40;;;;;;;;;;4928198;28;20211;-88
2024/03/29 02:31:11;;;;;;;0.53;0.53;;;;;;;;;;4943175;28;20693;-89
2024/03/29 02:34:17;;;;;;;0.90;0.90;;;;;;;;;;4943174;28;20216;-88
2024/03/29 02:37:23;;;;;;;2.97;0.60;;;;;;;;;;4941850;29;20215;-90
2024/03/29 02:40:29;;;;;;;1.63;1.13;;;;;;;;;;4942253;29;20274;-91
2024/03/29 02:43:33;;;;;;;0.53;0.53;;;;;;;;;;4950343;29;20871;-89
2024/03/29 02:46:38;;;;;;;0.67;0.67;;;;;;;;;;4941805;29;20202;-88
2024/03/29 02:49:42;;;;;;;0.67;0.67;;;;;;;;;;4941083;29;20219;-88
2024/03/29 02:52:47;;;;;;;51.00;2.20;;;;;;;;;;4942310;29;20223;-89
2024/03/29 02:55:52;;;;;;;0.47;0.47;;;;;;;;;;4953546;29;20569;-89
2024/03/29 02:58:57;;;;;;;0.40;0.40;;;;;;;;;;4943343;28;20195;-89
2024/03/29 03:02:01;;;;;;;1.80;0.80;;;;;;;;;;4942734;29;20572;-89
2024/03/29 03:05:08;;;;;;;0.50;0.50;;;;;;;;;;4934091;29;20363;-89
2024/03/29 03:11:36;;;;;;;0.60;0.60;;;;;;;;;;4941988;29;20662;-89
2024/03/29 03:14:43;;;;;;;0.73;0.73;;;;;;;;;;4935110;28;20745;-89
2024/03/29 03:17:48;;;;;;;0.77;0.70;;;;;;;;;;4920782;29;20188;-89
2024/03/29 03:20:52;;;;;;;0.60;0.60;;;;;;;;;;4929940;29;20231;-89
2024/03/29 03:23:57;;;;;;;0.50;0.50;;;;;;;;;;4940807;29;20195;-89
2024/03/29 03:27:02;;;;;;;0.53;0.53;;;;;;;;;;4923881;29;20667;-88
2024/03/29 03:30:08;;;;;;;0.40;0.40;;;;;;;;;;4940708;29;20211;-88
2024/03/29 03:33:12;;;;;;;0.53;0.53;;;;;;;;;;4940171;29;20226;-88
2024/03/29 03:36:17;;;;;;;0.60;0.60;;;;;;;;;;4941538;28;20199;-89
2024/03/29 03:39:21;;;;;;;0.97;0.87;;;;;;;;;;4940948;28;20227;-90
2024/03/29 03:42:27;;;;;;;5.10;0.67;;;;;;;;;;4927425;29;20211;-89
2024/03/29 03:45:34;;;;;;;0.50;0.50;;;;;;;;;;4923101;28;20247;-88
2024/03/29 03:48:39;;;;;;;2.97;0.97;;;;;;;;;;4921304;29;20207;-88
2024/03/29 03:51:44;;;;;;;0.70;0.70;;;;;;;;;;4951838;29;20231;-89
2024/03/29 03:54:49;;;;;;;0.77;0.53;;;;;;;;;;4941883;28;20203;-88
2024/03/29 03:57:56;;;;;;;1.03;0.73;;;;;;;;;;4941527;29;20287;-89
2024/03/29 04:01:04;;;;;;;0.50;0.50;;;;;;;;;;4941098;29;20207;-88
2024/03/29 04:04:09;;;;;;;0.67;0.67;;;;;;;;;;4942219;29;20208;-89
2024/03/29 04:07:13;;;;;;;5.10;1.00;;;;;;;;;;4940805;29;20242;-89
2024/03/29 04:10:18;;;;;;;0.40;0.40;;;;;;;;;;4939845;29;20583;-89
2024/03/29 04:13:23;;;;;;;0.40;0.40;;;;;;;;;;4940769;29;20331;-88
2024/03/29 04:16:29;;;;;;;0.50;0.50;;;;;;;;;;4947275;28;20258;-88
2024/03/29 04:19:32;;;;;;;1.03;1.00;;;;;;;;;;4941842;29;20226;-88
2024/03/29 04:22:37;;;;;;;0.60;0.60;;;;;;;;;;4940952;29;20214;-88
2024/03/29 04:25:42;;;;;;;3.23;0.57;;;;;;;;;;4940863;29;20288;-88
2024/03/29 04:28:48;;;;;;;1.90;1.03;;;;;;;;;;4941153;29;20198;-89
2024/03/29 04:31:53;;;;;;;3.20;0.83;;;;;;;;;;4941291;29;20266;-89
2024/03/29 04:34:58;;;;;;;0.40;0.40;;;;;;;;;;4941296;28;20182;-88
2024/03/29 04:38:05;;;;;;;0.70;0.70;;;;;;;;;;4940883;29;20211;-89
2024/03/29 04:41:13;;;;;;;0.80;0.80;;;;;;;;;;4950362;29;20211;-90
2024/03/29 04:44:26;;;;;;;0.80;0.80;;;;;;;;;;4940258;28;20214;-89
2024/03/29 04:47:31;;;;;;;0.50;0.50;;;;;;;;;;4941435;28;20195;-87
2024/03/29 04:50:36;;;;;;;0.77;0.77;;;;;;;;;;4940793;29;20242;-89
2024/03/29 04:53:41;;;;;;;0.70;0.70;;;;;;;;;;4940535;28;20207;-88
2024/03/29 04:56:46;;;;;;;0.50;0.50;;;;;;;;;;4921985;29;20227;-90
2024/03/29 04:59:53;;;;;;;0.50;0.50;;;;;;;;;;4932576;28;20218;-89
2024/03/29 05:02:58;;;;;;;0.63;0.63;;;;;;;;;;4939918;29;20291;-88
2024/03/29 05:06:02;;;;;;;2.13;0.80;;;;;;;;;;4937618;28;20223;-88
2024/03/29 05:09:07;;;;;;;0.40;0.40;;;;;;;;;;4936773;29;20195;-88
2024/03/29 05:12:12;;;;;;;0.60;0.60;;;;;;;;;;4940098;28;20613;-88
2024/03/29 05:15:19;;;;;;;6.03;0.93;;;;;;;;;;4943010;28;20288;-86
2024/03/29 05:18:24;;;;;;;1.00;0.90;;;;;;;;;;4945464;29;20196;-88
2024/03/29 05:21:29;;;;;;;0.50;0.50;;;;;;;;;;4944107;28;20206;-88
2024/03/29 05:24:33;;;;;;;0.40;0.40;;;;;;;;;;4943421;28;20289;-88
2024/03/29 05:27:38;;;;;;;0.63;0.63;;;;;;;;;;4943593;29;20789;-88
2024/03/29 05:30:45;;;;;;;0.83;0.70;;;;;;;;;;4941464;29;20214;-87
2024/03/29 05:33:50;;;;;;;0.93;0.83;;;;;;;;;;4935848;29;20299;-87
2024/03/29 05:36:54;;;;;;;0.67;0.67;;;;;;;;;;4942281;28;20215;-88
2024/03/29 05:40:00;;;;;;;0.80;0.50;;;;;;;;;;4944455;29;20697;-89
2024/03/29 05:43:05;;;;;;;1.23;0.70;;;;;;;;;;4944643;28;20331;-89
2024/03/29 05:46:11;;;;;;;0.50;0.50;;;;;;;;;;4943426;28;20266;-88
2024/03/29 05:49:16;;;;;;;0.63;0.60;;;;;;;;;;4943339;29;20275;-89
2024/03/29 05:52:23;;;;;;;1.37;1.00;;;;;;;;;;4944157;29;20227;-90
2024/03/29 05:55:28;;;;;;;1.08;1.08;;;;;;;;;;4943371;29;20709;-90
2024/03/29 05:58:35;;;;;;;1.00;0.73;;;;;;;;;;4924890;29;20207;-89
2024/03/29 06:01:41;;;;;;;0.60;0.60;;;;;;;;;;4934951;29;20204;-89
2024/03/29 06:04:47;;;;;;;1.75;1.20;;;;;;;;;;4935706;29;20215;-88
2024/03/29 06:07:52;;;;;;;0.50;0.50;;;;;;;;;;4942191;29;20195;-89
2024/03/29 06:10:59;;;;;;;0.77;0.70;;;;;;;;;;4943026;29;20210;-90
2024/03/29 06:17:28;;;;;;;0.52;0.52;;;;;;;;;;4943994;28;20291;-90
2024/03/29 06:20:34;;;;;;;0.98;0.80;;;;;;;;;;4944031;28;20695;-89
2024/03/29 06:23:39;;;;;;;1.65;1.27;;;;;;;;;;4943975;29;20218;-87
2024/03/29 06:26:44;;;;;;;7.72;4.90;;;;;;;;;;4942878;28;20211;-89
2024/03/29 06:29:49;;;;;;;10.43;5.05;;;;;;;;;;4937564;29;20215;-89
2024/03/29 06:32:56;;;;;;;9.88;4.68;;;;;;;;;;4943602;28;20228;-89
2024/03/29 06:36:01;;;;;;;7.10;4.22;;;;;;;;;;4944255;29;20281;-88
2024/03/29 06:39:06;;;;;;;8.40;4.25;;;;;;;;;;4943038;28;20187;-89
2024/03/29 06:42:11;;;;;;;5.88;4.05;;;;;;;;;;4941200;29;20250;-89
2024/03/29 06:45:16;;;;;;;8.65;4.18;;;;;;;;;;4939117;28;20223;-90
2024/03/29 06:48:23;;;;;;;6.85;4.10;;;;;;;;;;4942363;28;20699;-89
2024/03/29 06:51:28;;;;;;;8.88;4.13;;;;;;;;;;4944416;28;20215;-88
2024/03/29 06:54:33;;;;;;;9.63;4.88;;;;;;;;;;4942882;28;20215;-87
2024/03/29 06:57:44;;;;;;;11.15;5.70;;;;;;;;;;4942776;29;20203;-90
2024/03/29 07:00:50;;;;;;;13.75;5.15;;;;;;;;;;4941759;29;20265;-89
2024/03/29 07:03:57;;;;;;;7.78;4.07;;;;;;;;;;4941107;29;20184;-87
2024/03/29 07:07:02;;;;;;;9.27;4.80;;;;;;;;;;4927655;29;20282;-89
2024/03/29 07:10:07;;;;;;;7.80;4.20;;;;;;;;;;4929739;29;20215;-88
2024/03/29 07:13:13;;;;;;;7.60;4.20;;;;;;;;;;4944415;28;20226;-89
2024/03/29 07:16:18;;;;;;;7.35;4.10;;;;;;;;;;4945214;28;20683;-89
2024/03/29 07:19:24;;;;;;;5.82;3.95;;;;;;;;;;4925639;29;20236;-88
2024/03/29 07:22:29;;;;;;;7.10;3.65;;;;;;;;;;4922997;28;20220;-89
2024/03/29 07:25:34;;;;;;;8.60;3.60;;;;;;;;;;4935950;28;20214;-88
2024/03/29 07:28:40;;;;;;;6.60;3.53;;;;;;;;;;4952244;28;20222;-89
2024/03/29 07:31:45;;;;;;;5.45;3.00;;;;;;;;;;4934163;29;20341;-88
2024/03/29 07:34:52;;;;;;;4.72;3.10;;;;;;;;;;4942111;28;20199;-90
2024/03/29 07:37:57;;;;;;;7.00;2.80;;;;;;;;;;4942205;28;20278;-89
2024/03/29 07:41:02;;;;;;;4.18;2.33;;;;;;;;;;4941600;28;20195;-89
2024/03/29 07:44:08;;;;;;;6.50;2.42;;;;;;;;;;4935461;28;20223;-89
2024/03/29 07:47:14;;;;;;;4.07;2.33;;;;;;;;;;4942894;28;20198;-89
2024/03/29 07:50:20;;;;;;;4.68;2.03;;;;;;;;;;4940924;28;20199;-90
2024/03/29 07:53:25;;;;;;;3.78;1.73;;;;;;;;;;4942355;28;20214;-90
2024/03/29 07:56:31;;;;;;;3.85;1.67;;;;;;;;;;4941777;29;20226;-89
2024/03/29 07:59:40;;;;;;;3.40;1.75;;;;;;;;;;4935519;28;20281;-89
2024/03/29 08:02:45;;;;;;;2.80;1.63;;;;;;;;;;4943717;28;20186;-90
2024/03/29 08:05:59;;;;;;;5.53;1.50;;;;;;;;;;4943890;28;20666;-89
2024/03/29 08:09:05;;;;;;;2.00;1.20;;;;;;;;;;4941452;29;20195;-88
2024/03/29 08:12:10;;;;;;;2.08;1.20;;;;;;;;;;4941507;28;20239;-88
2024/03/29 08:15:17;;;;;;;1.45;1.17;;;;;;;;;;4935962;28;20211;-90
2024/03/29 08:18:23;;;;;;;3.47;1.10;;;;;;;;;;4922315;28;20665;-89
2024/03/29 08:21:30;;;;;;;3.72;1.20;;;;;;;;;;4934620;28;20667;-90
2024/03/29 08:24:35;;;;;;;1.30;0.75;;;;;;;;;;4940807;28;20911;-90
2024/03/29 08:27:40;;;;;;;1.42;0.85;;;;;;;;;;4928759;29;20219;-92
2024/03/29 08:30:45;;;;;;;0.90;0.73;;;;;;;;;;4922061;29;20204;-90
2024/03/29 08:33:50;;;;;;;3.30;0.85;;;;;;;;;;4924227;29;20228;-91
2024/03/29 08:36:56;;;;;;;1.33;0.88;;;;;;;;;;4944173;29;20318;-90
2024/03/29 08:40:02;;;;;;;1.42;0.80;;;;;;;;;;4945782;29;20198;-89
2024/03/29 08:43:07;;;;;;;5.10;0.77;;;;;;;;;;4955385;28;20183;-90
2024/03/29 08:46:13;;;;;;;1.30;0.90;;;;;;;;;;4930313;29;20203;-90
2024/03/29 08:49:18;;;;;;;0.57;0.57;;;;;;;;;;4954464;29;20235;-92
2024/03/29 08:52:25;;;;;;;2.13;0.80;;;;;;;;;;4940768;29;20701;-92
2024/03/29 08:55:30;;;;;;;1.17;0.60;;;;;;;;;;4945382;28;20262;-91
2024/03/29 08:58:36;;;;;;;1.60;0.60;;;;;;;;;;4951357;28;20205;-91
2024/03/29 09:01:52;;;;;;;1.65;0.90;;;;;;;;;;4932935;28;20331;-91
2024/03/29 09:04:58;;;;;;;0.90;0.70;;;;;;;;;;4949291;28;20192;-90
2024/03/29 09:08:05;;;;;;;3.40;0.85;;;;;;;;;;4949227;29;20235;-91
2024/03/29 09:11:11;;;;;;;1.13;0.70;;;;;;;;;;4950094;28;20286;-92
2024/03/29 09:14:17;;;;;;;1.52;1.00;;;;;;;;;;4950096;28;20234;-92
2024/03/29 09:17:24;;;;;;;1.77;0.80;;;;;;;;;;4950328;29;20211;-93
2024/03/29 09:20:29;;;;;;;1.27;0.70;;;;;;;;;;4934113;29;20199;-92
2024/03/29 09:23:36;;;;;;;1.95;0.75;;;;;;;;;;4949244;28;20300;-91
2024/03/29 09:26:44;;;;;;;1.30;1.08;;;;;;;;;;4949631;28;20207;-93
2024/03/29 09:29:49;;;;;;;1.40;1.10;;;;;;;;;;4950113;29;20195;-92
2024/03/29 09:33:06;;;;;;;2.33;0.80;;;;;;;;;;4949900;29;20235;-92
2024/03/29 09:36:12;;;;;;;1.83;0.63;;;;;;;;;;4953044;28;20220;-93
2024/03/29 09:39:19;;;;;;;1.50;0.80;;;;;;;;;;4932559;28;20291;-94
2024/03/29 09:42:25;;;;;;;1.23;0.80;;;;;;;;;;4943008;28;20195;-92
2024/03/29 09:45:34;;;;;;;1.38;0.68;;;;;;;;;;4930735;29;20216;-93
2024/03/29 09:48:40;;;;;;;2.28;0.98;;;;;;;;;;4942365;29;20183;-92
2024/03/29 09:51:47;;;;;;;1.17;0.60;;;;;;;;;;4942238;28;20288;-92
2024/03/29 09:54:54;;;;;;;1.58;0.65;;;;;;;;;;4943560;29;20273;-92
2024/03/29 09:58:00;;;;;;;1.42;0.70;;;;;;;;;;4951735;28;20187;-92
2024/03/29 10:01:36;;;;;;;1.65;0.70;;;;;;;;;;4952479;28;20187;-92
2024/03/29 10:04:41;;;;;;;2.22;0.63;;;;;;;;;;4951833;28;20206;-91
2024/03/29 10:07:47;;;;;;;2.03;0.82;;;;;;;;;;4951419;28;20563;-91
2024/03/29 10:10:55;;;;;;;1.67;0.65;;;;;;;;;;4949966;28;20195;-91
2024/03/29 10:14:08;;;;;;;1.52;0.65;;;;;;;;;;4949191;28;20763;-91
2024/03/29 10:17:13;;;;;;;0.52;0.50;;;;;;;;;;4948159;28;20196;-91
2024/03/29 10:20:19;;;;;;;2.47;0.70;;;;;;;;;;4949686;28;20201;-90
2024/03/29 10:23:24;;;;;;;3.38;1.10;;;;;;;;;;4951714;28;20226;-90
2024/03/29 10:26:31;;;;;;;0.40;0.40;;;;;;;;;;4948647;28;20689;-93
2024/03/29 10:29:36;;;;;;;2.15;0.52;;;;;;;;;;4948243;28;20187;-91
2024/03/29 10:32:41;;;;;;;1.13;0.60;;;;;;;;;;4950922;28;20210;-93
2024/03/29 10:35:50;;;;;;;1.30;0.50;;;;;;;;;;4950395;28;20215;-90
2024/03/29 10:38:56;;;;;;;3.05;0.63;;;;;;;;;;4947434;28;20315;-92
2024/03/29 10:42:05;;;;;;;1.35;0.65;;;;;;;;;;4946387;28;20223;-92
2024/03/29 10:45:10;;;;;;;1.10;0.68;;;;;;;;;;4947335;28;20218;-92
2024/03/29 10:48:17;;;;;;;1.30;0.60;;;;;;;;;;4947387;28;20222;-92
2024/03/29 10:51:23;;;;;;;1.23;0.70;;;;;;;;;;4949834;28;20689;-91
2024/03/29 10:54:30;;;;;;;2.50;0.60;;;;;;;;;;4949583;28;20195;-92
2024/03/29 10:57:38;;;;;;;1.52;0.50;;;;;;;;;;4947749;28;20203;-92
2024/03/29 11:00:50;;;;;;;0.88;0.60;;;;;;;;;;4948361;28;20199;-92
2024/03/29 11:04:00;;;;;;;1.48;0.60;;;;;;;;;;4949256;28;20702;-91
2024/03/29 11:07:08;;;;;;;0.98;0.60;;;;;;;;;;4949938;28;20236;-91
2024/03/29 11:10:15;;;;;;;2.05;0.60;;;;;;;;;;4949143;28;20571;-92
2024/03/29 11:13:27;;;;;;;1.77;0.55;;;;;;;;;;4950053;28;20224;-90
2024/03/29 11:16:33;;;;;;;0.70;0.50;;;;;;;;;;4950305;28;20227;-91
2024/03/29 11:19:38;;;;;;;1.23;0.50;;;;;;;;;;4939266;28;20235;-91
2024/03/29 11:22:44;;;;;;;2.80;1.20;;;;;;;;;;4946271;28;20191;-91
2024/03/29 11:25:51;;;;;;;2.90;0.63;;;;;;;;;;4949885;28;20184;-90
2024/03/29 11:29:02;;;;;;;1.02;0.63;;;;;;;;;;4945579;28;20203;-91
2024/03/29 11:32:07;;;;;;;0.70;0.52;;;;;;;;;;4945178;28;20273;-91
2024/03/29 11:35:16;;;;;;;0.98;0.60;;;;;;;;;;4947958;28;20302;-91
2024/03/29 11:38:47;;;;;;;1.13;0.60;;;;;;;;;;4944755;28;20701;-90
2024/03/29 11:41:55;;;;;;;5.20;0.90;;;;;;;;;;4942241;29;20270;-91
2024/03/29 11:49:06;;;;;;;2.83;0.65;;;;;;;;;;4927726;28;20216;-91
2024/03/29 11:52:12;;;;;;;1.83;1.00;;;;;;;;;;4937748;28;20218;-90
2024/03/29 11:55:18;;;;;;;2.28;0.93;;;;;;;;;;4946874;28;20808;-92
2024/03/29 11:58:31;;;;;;;1.33;0.80;;;;;;;;;;4947963;28;20202;-89
2024/03/29 13:40:32;;;;;;;1.52;0.77;;;;;;;;;;4956750;28;20170;-92
2024/03/29 13:44:05;;;;;;;1.92;0.75;;;;;;;;;;4961948;28;20218;-94
2024/03/29 13:47:15;;;;;;;0.60;0.60;;;;;;;;;;4964332;28;20194;-92
2024/03/29 15:30:54;;;;;;;2.05;1.13;;;;;;;;;;4924047;28;20250;-90
2024/03/29 15:33:59;;;;;;;1.23;0.60;;;;;;;;;;4920605;28;20285;-90
2024/03/29 15:37:10;;;;;;;2.47;1.10;;;;;;;;;;4926102;28;20586;-90
2024/03/29 15:40:20;;;;;;;1.70;1.05;;;;;;;;;;4928299;29;20203;-91
2024/03/29 15:43:29;;;;;;;1.63;0.80;;;;;;;;;;4936440;28;20271;-91
2024/03/29 15:46:37;;;;;;;2.67;1.02;;;;;;;;;;4927583;28;20216;-90
2024/03/29 15:49:44;;;;;;;1.73;1.00;;;;;;;;;;4908674;29;20192;-89
2024/03/29 15:52:48;;;;;;;3.95;1.15;;;;;;;;;;4907904;29;20321;-90
2024/03/29 15:56:04;;;;;;;2.22;0.80;;;;;;;;;;4911444;29;20266;-89
2024/03/29 15:59:11;;;;;;;1.23;1.10;;;;;;;;;;4930854;29;20264;-91
2024/03/29 16:02:22;;;;;;;1.50;0.70;;;;;;;;;;4914228;29;20207;-92
2024/03/29 16:08:47;;;;;;;2.85;1.10;;;;;;;;;;4915713;29;20215;-92
2024/03/29 16:11:52;;;;;;;4.28;1.25;;;;;;;;;;4916471;28;20294;-92
2024/03/29 16:14:57;;;;;;;3.05;0.95;;;;;;;;;;4929819;29;20216;-92
2024/03/29 16:18:04;;;;;;;10.00;2.60;;;;;;;;;;4933416;28;20200;-89
2024/03/29 16:21:12;;;;;;;4.75;2.30;;;;;;;;;;4937742;28;20203;-89
2024/03/29 16:24:16;;;;;;;5.18;1.85;;;;;;;;;;4919101;29;20309;-90
2024/03/29 16:27:21;;;;;;;8.65;2.50;;;;;;;;;;4923270;29;20202;-90
2024/03/29 16:30:25;;;;;;;5.63;1.63;;;;;;;;;;4921849;29;20195;-89
2024/03/29 16:33:34;;;;;;;4.03;1.40;;;;;;;;;;4922449;29;20212;-90
2024/03/29 16:36:37;;;;;;;3.78;1.50;;;;;;;;;;4918026;29;20212;-90
2024/03/29 16:39:46;;;;;;;2.60;1.40;;;;;;;;;;4925946;29;20188;-91
2024/03/29 16:42:55;;;;;;;5.80;1.95;;;;;;;;;;4944227;28;20203;-89
2024/03/29 16:45:59;;;;;;;3.03;1.10;;;;;;;;;;4938995;28;20223;-92
2024/03/29 16:49:06;;;;;;;2.42;1.00;;;;;;;;;;4932211;28;20210;-93
2024/03/29 16:52:14;;;;;;;4.38;1.48;;;;;;;;;;4909111;29;20274;-91
2024/03/29 16:58:46;;;;;;;3.50;1.35;;;;;;;;;;4919675;28;20909;-92
2024/03/29 17:01:51;;;;;;;6.07;2.13;;;;;;;;;;4935538;28;20255;-91
2024/03/29 17:04:58;;;;;;;5.43;1.60;;;;;;;;;;4939103;29;20631;-90
2024/03/29 17:08:03;;;;;;;5.03;1.80;;;;;;;;;;4934591;28;20191;-92
2024/03/29 17:11:14;;;;;;;11.55;4.40;;;;;;;;;;4932839;28;20262;-90
2024/03/29 17:14:20;;;;;;;11.98;5.28;;;;;;;;;;4929013;28;20210;-92
2024/03/29 17:17:25;;;;;;;11.38;4.32;;;;;;;;;;4927819;29;20203;-92
2024/03/29 17:20:45;;;;;;;9.30;3.00;;;;;;;;;;4930268;29;20279;-90
2024/03/29 17:23:54;;;;;;;9.60;4.40;;;;;;;;;;4924905;28;20310;-91
2024/03/29 17:26:59;;;;;;;10.05;3.85;;;;;;;;;;4929629;28;20281;-92
2024/03/29 17:30:05;;;;;;;12.52;4.28;;;;;;;;;;4928252;28;20216;-91
2024/03/29 17:33:09;;;;;;;11.20;4.10;;;;;;;;;;4928060;28;20200;-92
2024/03/29 17:36:14;;;;;;;8.70;3.85;;;;;;;;;;4928757;29;20216;-89
2024/03/29 17:39:19;;;;;;;14.60;6.10;;;;;;;;;;4935173;29;20195;-89
2024/03/29 17:42:25;;;;;;;9.75;3.03;;;;;;;;;;4932332;28;20199;-90
2024/03/29 17:45:29;;;;;;;13.10;5.00;;;;;;;;;;4926838;28;20255;-90
2024/03/29 17:48:35;;;;;;;9.43;5.00;;;;;;;;;;4935583;29;20251;-91
2024/03/29 17:51:39;;;;;;;13.93;6.45;;;;;;;;;;4921068;28;20199;-90
2024/03/29 17:54:46;;;;;;;10.05;4.40;;;;;;;;;;4922903;28;20208;-90
2024/03/29 17:57:52;;;;;;;7.68;4.13;;;;;;;;;;4925399;28;20212;-91
2024/03/29 18:00:58;;;;;;;10.07;4.65;;;;;;;;;;4914928;29;20212;-90
2024/03/29 18:04:02;;;;;;;12.77;4.93;;;;;;;;;;4916439;29;20227;-91
2024/03/29 18:07:07;;;;;;;12.52;6.53;;;;;;;;;;4911442;29;20215;-92
2024/03/29 18:10:15;;;;;;;12.00;4.55;;;;;;;;;;4929002;29;20688;-90
2024/03/29 18:13:21;;;;;;;14.75;6.68;;;;;;;;;;4928833;28;20251;-91
2024/03/29 18:16:25;;;;;;;11.98;5.22;;;;;;;;;;4931268;28;20192;-93
2024/03/29 18:19:30;;;;;;;15.38;5.63;;;;;;;;;;4933001;29;20720;-91
2024/03/29 18:22:34;;;;;;;18.30;8.75;;;;;;;;;;4938316;28;20667;-92
2024/03/29 18:25:41;;;;;;;27.27;12.63;;;;;;;;;;4936595;28;20259;-91
2024/03/29 18:28:46;;;;;;;14.73;7.82;;;;;;;;;;4925177;28;20211;-91
2024/03/29 18:31:51;;;;;;;15.82;5.60;;;;;;;;;;4928121;28;20220;-90
2024/03/29 18:34:55;;;;;;;13.75;6.20;;;;;;;;;;4923668;28;20263;-89
2024/03/29 18:38:01;;;;;;;14.68;5.85;;;;;;;;;;4926226;28;20203;-91
2024/03/29 18:41:06;;;;;;;11.32;4.95;;;;;;;;;;4929635;28;20215;-90
2024/03/29 18:44:11;;;;;;;8.65;4.07;;;;;;;;;;4927272;28;20216;-90
2024/03/29 18:47:27;;;;;;;13.60;4.38;;;;;;;;;;4923080;29;20324;-90
2024/03/29 18:50:35;;;;;;;18.88;6.57;;;;;;;;;;4911505;29;20250;-90
2024/03/29 18:53:41;;;;;;;9.02;4.28;;;;;;;;;;4912970;29;20207;-89
2024/03/29 18:56:48;;;;;;;7.43;4.38;;;;;;;;;;4923455;28;20273;-91
2024/03/29 18:59:55;;;;;;;13.07;5.22;;;;;;;;;;4910059;29;20184;-90
2024/03/29 19:03:02;;;;;;;13.60;5.38;;;;;;;;;;4928184;28;20199;-91
2024/03/29 19:06:07;;;;;;;13.98;6.07;;;;;;;;;;4926098;28;20678;-91
2024/03/29 19:09:11;;;;;;;20.27;6.32;;;;;;;;;;4926282;28;20211;-92
2024/03/29 19:12:32;;;;;;;12.55;5.18;;;;;;;;;;4926584;28;20232;-91
2024/03/29 19:15:39;;;;;;;15.27;5.13;;;;;;;;;;4925852;29;20407;-91
2024/03/29 19:18:44;;;;;;;13.88;5.97;;;;;;;;;;4919578;29;20208;-91
2024/03/29 19:21:50;;;;;;;12.00;5.22;;;;;;;;;;4928310;28;20212;-90
2024/03/29 19:24:56;;;;;;;13.02;5.10;;;;;;;;;;4927918;28;20304;-91
2024/03/29 19:28:01;;;;;;;11.85;5.38;;;;;;;;;;4936935;28;20227;-91
2024/03/29 19:31:11;;;;;;;13.77;5.53;;;;;;;;;;4929101;29;20215;-91
2024/03/29 19:34:16;;;;;;;15.18;5.70;;;;;;;;;;4940986;28;20248;-91
2024/03/29 19:37:21;;;;;;;11.93;5.57;;;;;;;;;;4922664;28;20180;-90
2024/03/29 19:40:26;;;;;;;12.98;4.97;;;;;;;;;;4909188;29;20267;-93
2024/03/29 19:43:34;;;;;;;18.80;5.13;;;;;;;;;;4935023;28;20211;-92
2024/03/29 19:46:51;;;;;;;19.73;5.90;;;;;;;;;;4930040;28;20240;-91
2024/03/29 19:49:55;;;;;;;13.50;5.63;;;;;;;;;;4920231;29;20208;-89
2024/03/29 19:53:01;;;;;;;15.43;5.53;;;;;;;;;;4939658;28;20179;-90
2024/03/29 19:56:07;;;;;;;17.10;5.72;;;;;;;;;;4941102;28;20268;-90
2024/03/29 19:59:12;;;;;;;11.50;5.30;;;;;;;;;;4939353;28;20200;-91
2024/03/29 20:02:21;;;;;;;14.18;6.63;;;;;;;;;;4927258;28;20196;-91
2024/03/29 20:05:26;;;;;;;12.95;5.13;;;;;;;;;;4909203;29;20664;-92
2024/03/29 20:08:31;;;;;;;10.25;5.03;;;;;;;;;;4920190;28;20703;-90
2024/03/29 20:11:35;;;;;;;14.30;7.05;;;;;;;;;;4933371;28;20675;-92
2024/03/29 20:14:41;;;;;;;11.10;4.70;;;;;;;;;;4926402;28;20211;-91
2024/03/29 20:17:46;;;;;;;14.60;5.25;;;;;;;;;;4923078;28;20219;-92
2024/03/29 20:20:52;;;;;;;16.65;7.25;;;;;;;;;;4928021;28;20203;-91
2024/03/29 20:23:57;;;;;;;19.42;5.50;;;;;;;;;;4922216;28;20207;-91
2024/03/29 20:27:03;;;;;;;13.30;6.47;;;;;;;;;;4925224;29;20247;-90
2024/03/29 20:30:10;;;;;;;15.02;6.13;;;;;;;;;;4909612;29;20262;-90
2024/03/29 20:33:18;;;;;;;18.92;5.15;;;;;;;;;;4937121;28;20260;-91
2024/03/29 20:36:22;;;;;;;21.65;6.30;;;;;;;;;;4928049;28;20228;-92
2024/03/29 20:39:28;;;;;;;14.38;5.28;;;;;;;;;;4915708;29;20183;-90
2024/03/29 20:42:36;;;;;;;18.33;5.72;;;;;;;;;;4916519;29;20264;-91
2024/03/29 20:45:42;;;;;;;11.85;4.38;;;;;;;;;;4915740;29;20216;-92
2024/03/29 20:48:48;;;;;;;11.85;4.60;;;;;;;;;;4914659;29;20221;-92
2024/03/29 20:51:54;;;;;;;12.88;4.78;;;;;;;;;;4940005;28;20246;-92
2024/03/29 20:54:58;;;;;;;13.18;4.45;;;;;;;;;;4944082;28;20238;-91
2024/03/29 20:58:05;;;;;;;11.02;4.20;;;;;;;;;;4932699;29;20231;-91
2024/03/29 21:01:09;;;;;;;12.05;4.07;;;;;;;;;;4925506;28;20255;-91
2024/03/29 21:07:45;;;;;;;15.60;4.47;;;;;;;;;;4938823;28;20260;-92
2024/03/29 21:10:51;;;;;;;11.52;4.07;;;;;;;;;;4933751;28;20187;-92
2024/03/29 21:13:56;;;;;;;11.43;4.05;;;;;;;;;;4914724;29;20225;-90
2024/03/29 21:17:02;;;;;;;12.07;2.88;;;;;;;;;;4932318;28;20195;-92
2024/03/29 21:20:09;;;;;;;8.93;2.83;;;;;;;;;;4933899;28;20571;-89
2024/03/29 21:23:14;;;;;;;6.97;3.20;;;;;;;;;;4931202;28;20675;-90
2024/03/29 21:26:18;;;;;;;9.50;2.88;;;;;;;;;;4932478;28;20228;-90
2024/03/29 21:29:24;;;;;;;8.18;3.55;;;;;;;;;;4924208;28;20227;-91
2024/03/29 21:32:29;;;;;;;12.75;3.60;;;;;;;;;;4927146;28;20180;-90
2024/03/29 21:35:36;;;;;;;9.77;2.95;;;;;;;;;;4943472;28;20227;-90
2024/03/29 21:38:40;;;;;;;7.28;2.53;;;;;;;;;;4913304;29;20204;-91
2024/03/29 21:41:46;;;;;;;8.15;2.60;;;;;;;;;;4932742;28;20204;-92
2024/03/29 21:44:51;;;;;;;10.65;3.90;;;;;;;;;;4931043;28;20320;-92
2024/03/29 21:47:56;;;;;;;8.77;3.70;;;;;;;;;;4932035;28;20207;-92
2024/03/29 21:51:02;;;;;;;9.10;2.78;;;;;;;;;;4932868;28;20203;-91
2024/03/29 21:54:07;;;;;;;5.90;2.50;;;;;;;;;;4930503;28;20264;-92
2024/03/29 21:57:11;;;;;;;7.13;2.55;;;;;;;;;;4924167;29;20341;-91
2024/03/29 22:00:17;;;;;;;5.40;2.13;;;;;;;;;;4929022;29;20207;-90
2024/03/29 22:03:21;;;;;;;9.35;2.55;;;;;;;;;;4937533;28;20284;-92
2024/03/29 22:06:30;;;;;;;12.68;2.78;;;;;;;;;;4929108;28;20252;-92
2024/03/29 22:09:35;;;;;;;8.70;3.08;;;;;;;;;;4932623;28;20208;-90
2024/03/29 22:12:40;;;;;;;6.10;2.85;;;;;;;;;;4927582;28;20204;-89
2024/03/29 22:15:44;;;;;;;9.10;2.80;;;;;;;;;;4927109;28;20232;-90
2024/03/29 22:18:49;;;;;;;8.07;2.47;;;;;;;;;;4929436;28;20214;-89
2024/03/29 22:21:56;;;;;;;8.77;2.80;;;;;;;;;;4927983;28;20488;-90
2024/03/29 22:25:01;;;;;;;10.65;2.63;;;;;;;;;;4939300;28;20199;-89
2024/03/29 22:28:06;;;;;;;8.60;2.83;;;;;;;;;;4938168;28;20211;-90
2024/03/29 22:31:12;;;;;;;6.35;2.63;;;;;;;;;;4938516;28;20198;-89
2024/03/29 22:34:17;;;;;;;6.20;2.78;;;;;;;;;;4937798;28;20248;-90
2024/03/29 22:37:23;;;;;;;11.65;3.50;;;;;;;;;;4908567;29;20225;-90
2024/03/29 22:40:28;;;;;;;9.52;3.13;;;;;;;;;;4908777;29;20320;-89
2024/03/29 22:43:32;;;;;;;11.80;3.10;;;;;;;;;;4906496;29;20232;-90
2024/03/29 22:46:37;;;;;;;8.50;2.67;;;;;;;;;;4907162;29;20221;-90
2024/03/29 22:49:41;;;;;;;9.10;3.08;;;;;;;;;;4907963;29;20199;-90
2024/03/29 22:52:49;;;;;;;9.52;2.92;;;;;;;;;;4918481;29;20679;-89
2024/03/29 22:55:54;;;;;;;12.30;3.08;;;;;;;;;;4939048;28;20216;-89
2024/03/29 22:59:02;;;;;;;12.27;3.08;;;;;;;;;;4938145;28;20200;-90
2024/03/29 23:02:06;;;;;;;9.68;3.03;;;;;;;;;;4937096;28;20260;-89
2024/03/29 23:05:11;;;;;;;8.32;3.47;;;;;;;;;;4939104;28;20180;-90
2024/03/29 23:08:17;;;;;;;13.32;3.55;;;;;;;;;;4928377;28;20215;-89
2024/03/29 23:11:22;;;;;;;8.93;3.45;;;;;;;;;;4927055;28;20192;-88
2024/03/29 23:14:26;;;;;;;10.60;3.88;;;;;;;;;;4930405;28;20196;-89
2024/03/29 23:17:33;;;;;;;13.27;3.92;;;;;;;;;;4929843;28;20223;-89
2024/03/29 23:20:37;;;;;;;7.07;3.45;;;;;;;;;;4925981;28;20272;-90
2024/03/29 23:23:43;;;;;;;14.98;3.45;;;;;;;;;;4937662;28;20171;-89
2024/03/29 23:26:47;;;;;;;11.63;3.60;;;;;;;;;;4926436;28;20199;-87
2024/03/29 23:29:52;;;;;;;13.60;4.53;;;;;;;;;;4928195;28;20192;-90
2024/03/29 23:32:56;;;;;;;10.15;3.47;;;;;;;;;;4909147;29;20215;-89
2024/03/29 23:36:02;;;;;;;16.75;3.85;;;;;;;;;;4920463;28;20757;-90
2024/03/29 23:39:10;;;;;;;12.10;3.40;;;;;;;;;;4920280;29;20258;-89
2024/03/29 23:42:15;;;;;;;11.20;3.90;;;;;;;;;;4907438;29;20220;-89
2024/03/29 23:45:19;;;;;;;10.10;3.60;;;;;;;;;;4917536;28;20224;-90
2024/03/29 23:48:24;;;;;;;10.27;3.25;;;;;;;;;;4906971;29;20620;-89
2024/03/29 23:51:29;;;;;;;10.68;3.10;;;;;;;;;;4906488;29;20193;-90
2024/03/29 23:54:36;;;;;;;8.60;2.85;;;;;;;;;;4908940;29;20184;-89